Time;durP1;ratioP1;P1;durP2;ratioP2;P2;SDS_P1;SDS_P2;PMS_P1;PMS_P2;Temp;Humidity;BMP_temperature;BMP_pressure;BME280_temperature;BME280_humidity;BME280_pressure;Samples;Min_cycle;Max_cycle;Signal;HPM_P1;HPM_P2
2022/03/02 00:04:02;;;;;;;94.03;39.08;;;;;;;;;;10313323;28;20046;-67
2022/03/02 00:09:05;;;;;;;112.22;44.58;;;;;;;;;;10308365;28;20050;-66
2022/03/02 00:14:08;;;;;;;90.88;38.60;;;;;;;;;;10314782;28;20201;-66
2022/03/02 00:19:10;;;;;;;82.25;34.50;;;;;;;;;;10314878;28;20102;-66
2022/03/02 00:24:14;;;;;;;92.13;38.20;;;;;;;;;;10315127;28;20334;-67
2022/03/02 00:29:16;;;;;;;96.70;40.00;;;;;;;;;;10314506;28;20051;-68
2022/03/02 00:34:19;;;;;;;100.68;43.78;;;;;;;;;;10315783;28;20038;-66
2022/03/02 00:39:22;;;;;;;99.10;41.70;;;;;;;;;;10314170;28;20211;-66
2022/03/02 00:44:25;;;;;;;98.28;39.53;;;;;;;;;;10313860;28;20054;-66
2022/03/02 00:49:28;;;;;;;100.82;42.10;;;;;;;;;;10314907;28;20043;-66
2022/03/02 00:54:32;;;;;;;112.25;45.88;;;;;;;;;;10313624;28;20043;-66
2022/03/02 00:59:34;;;;;;;124.25;49.33;;;;;;;;;;10313908;28;20114;-67
2022/03/02 01:04:37;;;;;;;140.40;53.95;;;;;;;;;;10312685;28;20042;-67
2022/03/02 01:09:40;;;;;;;137.85;56.28;;;;;;;;;;10313636;28;20050;-66
2022/03/02 01:14:43;;;;;;;152.13;59.13;;;;;;;;;;10313379;28;20179;-67
2022/03/02 01:19:46;;;;;;;158.57;58.05;;;;;;;;;;10312558;28;20341;-67
2022/03/02 01:24:49;;;;;;;145.50;56.22;;;;;;;;;;10310776;28;20042;-66
2022/03/02 01:29:52;;;;;;;140.48;56.80;;;;;;;;;;10312021;28;20042;-67
2022/03/02 01:34:54;;;;;;;151.40;59.90;;;;;;;;;;10312353;28;20047;-67
2022/03/02 01:39:58;;;;;;;136.80;55.33;;;;;;;;;;10309603;28;20077;-67
2022/03/02 01:45:01;;;;;;;124.15;49.58;;;;;;;;;;10312385;28;20070;-67
2022/03/02 01:50:06;;;;;;;114.35;49.22;;;;;;;;;;10312551;28;20043;-66
2022/03/02 01:55:11;;;;;;;126.15;51.47;;;;;;;;;;10309979;28;20051;-67
2022/03/02 02:00:18;;;;;;;144.63;60.42;;;;;;;;;;10314462;28;20135;-66
2022/03/02 02:05:20;;;;;;;143.02;56.28;;;;;;;;;;10323814;28;20054;-66
2022/03/02 02:10:24;;;;;;;162.25;65.55;;;;;;;;;;10309963;28;20055;-67
2022/03/02 02:15:26;;;;;;;180.15;71.45;;;;;;;;;;10309652;28;20093;-66
2022/03/02 02:20:29;;;;;;;175.43;69.65;;;;;;;;;;10309633;28;20334;-67
2022/03/02 02:25:34;;;;;;;188.18;71.97;;;;;;;;;;10310010;28;20317;-66
2022/03/02 02:30:37;;;;;;;184.73;71.90;;;;;;;;;;10309246;28;20051;-66
2022/03/02 02:35:40;;;;;;;181.43;69.90;;;;;;;;;;10309590;28;20062;-66
2022/03/02 02:40:44;;;;;;;179.65;71.82;;;;;;;;;;10309793;28;20051;-67
2022/03/02 02:45:47;;;;;;;168.38;67.78;;;;;;;;;;10312215;28;20046;-66
2022/03/02 02:50:49;;;;;;;170.88;67.47;;;;;;;;;;10310961;28;20086;-66
2022/03/02 02:55:54;;;;;;;155.70;64.63;;;;;;;;;;10309898;28;20267;-67
2022/03/02 03:00:57;;;;;;;166.32;67.85;;;;;;;;;;10310759;28;20302;-66
2022/03/02 03:05:59;;;;;;;166.55;67.85;;;;;;;;;;10310650;28;20528;-66
2022/03/02 03:11:03;;;;;;;171.35;67.78;;;;;;;;;;10309953;28;20047;-66
2022/03/02 03:16:07;;;;;;;164.48;66.88;;;;;;;;;;10310179;28;20258;-66
2022/03/02 03:21:09;;;;;;;158.00;64.45;;;;;;;;;;10310501;28;20321;-65
2022/03/02 03:26:15;;;;;;;143.60;57.42;;;;;;;;;;10314024;28;20059;-66
2022/03/02 03:31:18;;;;;;;136.13;55.70;;;;;;;;;;10314740;28;20250;-66
2022/03/02 03:36:20;;;;;;;152.02;60.30;;;;;;;;;;10315913;28;20055;-66
2022/03/02 03:41:24;;;;;;;145.10;61.72;;;;;;;;;;10315446;28;20043;-67
2022/03/02 03:46:26;;;;;;;126.60;52.88;;;;;;;;;;10314983;28;20047;-66
2022/03/02 03:51:28;;;;;;;170.57;68.07;;;;;;;;;;10315271;28;20346;-66
2022/03/02 03:56:32;;;;;;;155.32;63.72;;;;;;;;;;10315000;28;20389;-66
2022/03/02 04:01:35;;;;;;;144.50;56.60;;;;;;;;;;10315232;28;20293;-66
2022/03/02 04:06:38;;;;;;;119.57;51.13;;;;;;;;;;10313579;28;20334;-67
2022/03/02 04:11:41;;;;;;;134.75;54.53;;;;;;;;;;10314654;28;20356;-66
2022/03/02 04:16:44;;;;;;;158.27;63.33;;;;;;;;;;10313958;28;20046;-66
2022/03/02 04:21:46;;;;;;;173.35;68.47;;;;;;;;;;10314473;28;20054;-66
2022/03/02 04:26:50;;;;;;;171.90;70.90;;;;;;;;;;10314533;28;20059;-66
2022/03/02 04:31:52;;;;;;;186.93;72.97;;;;;;;;;;10313832;28;20042;-67
2022/03/02 04:36:54;;;;;;;169.50;71.15;;;;;;;;;;10312066;28;20059;-66
2022/03/02 04:41:58;;;;;;;179.18;73.10;;;;;;;;;;10313921;28;20039;-66
2022/03/02 04:47:00;;;;;;;168.73;73.22;;;;;;;;;;10313367;28;20039;-66
2022/03/02 04:52:03;;;;;;;162.63;66.90;;;;;;;;;;10313177;28;20266;-66
2022/03/02 04:57:09;;;;;;;163.52;68.93;;;;;;;;;;10313508;28;20051;-66
2022/03/02 05:02:11;;;;;;;;;;;;;;;;;;10327347;28;20078;-67
2022/03/02 05:07:13;;;;;;;176.85;72.05;;;;;;;;;;10312137;28;19992;-67
2022/03/02 05:12:17;;;;;;;167.25;68.40;;;;;;;;;;10311798;28;20042;-67
2022/03/02 05:17:19;;;;;;;168.18;69.20;;;;;;;;;;10312072;28;20102;-67
2022/03/02 05:22:22;;;;;;;164.00;67.20;;;;;;;;;;10312039;28;20050;-67
2022/03/02 05:27:25;;;;;;;160.30;66.05;;;;;;;;;;10312190;28;20098;-67
2022/03/02 05:32:28;;;;;;;167.68;69.25;;;;;;;;;;10311901;28;20050;-67
2022/03/02 05:37:30;;;;;;;156.77;67.40;;;;;;;;;;10311665;28;20051;-66
2022/03/02 05:42:34;;;;;;;188.60;77.72;;;;;;;;;;10312492;28;20047;-66
2022/03/02 05:47:37;;;;;;;164.82;69.70;;;;;;;;;;10311860;28;20085;-66
2022/03/02 05:52:39;;;;;;;183.38;76.63;;;;;;;;;;10310418;28;20346;-65
2022/03/02 05:57:44;;;;;;;172.75;74.70;;;;;;;;;;10311806;28;20063;-67
2022/03/02 06:02:46;;;;;;;145.20;63.42;;;;;;;;;;10310027;28;20047;-67
2022/03/02 06:07:48;;;;;;;163.30;67.82;;;;;;;;;;10311222;28;20050;-67
2022/03/02 06:12:53;;;;;;;156.63;64.75;;;;;;;;;;10299847;28;20266;-71
2022/03/02 06:17:56;;;;;;;142.23;63.93;;;;;;;;;;10311438;28;20049;-66
2022/03/02 06:22:59;;;;;;;131.50;65.30;;;;;;;;;;10310539;28;20058;-67
2022/03/02 06:28:03;;;;;;;146.35;70.32;;;;;;;;;;10307037;28;20039;-68
2022/03/02 06:33:06;;;;;;;135.93;70.10;;;;;;;;;;10311137;28;20046;-69
2022/03/02 06:38:08;;;;;;;129.48;70.50;;;;;;;;;;10311507;28;20054;-70
2022/03/02 06:43:18;;;;;;;116.30;66.93;;;;;;;;;;10308516;28;20062;-66
2022/03/02 06:48:23;;;;;;;105.72;59.53;;;;;;;;;;10310061;28;20051;-66
2022/03/02 06:53:32;;;;;;;101.47;60.53;;;;;;;;;;10306138;28;20046;-66
2022/03/02 06:58:41;;;;;;;96.63;57.88;;;;;;;;;;10309769;28;20125;-67
2022/03/02 07:03:47;;;;;;;93.85;56.88;;;;;;;;;;10329205;28;20281;-67
2022/03/02 07:08:50;;;;;;;90.03;55.00;;;;;;;;;;10440116;23;20241;-67
2022/03/02 07:13:54;;;;;;;95.95;53.28;;;;;;;;;;11177647;23;20114;-68
2022/03/02 07:18:57;;;;;;;92.95;51.28;;;;;;;;;;10642192;23;20380;-67
2022/03/02 07:24:06;;;;;;;73.35;46.10;;;;;;;;;;10329514;28;20093;-67
2022/03/02 07:34:22;;;;;;;67.75;39.90;;;;;;;;;;11796149;23;20067;-68
2022/03/02 07:39:24;;;;;;;56.50;35.45;;;;;;;;;;10277549;28;20047;-67
2022/03/02 07:44:28;;;;;;;63.47;36.03;;;;;;;;;;10288702;28;20062;-67
2022/03/02 07:49:31;;;;;;;53.00;33.05;;;;;;;;;;10285172;28;20046;-66
2022/03/02 07:54:37;;;;;;;79.78;35.63;;;;;;;;;;10274139;28;20058;-68
2022/03/02 07:59:40;;;;;;;49.05;31.45;;;;;;;;;;10288535;28;20043;-67
2022/03/02 08:04:44;;;;;;;45.80;29.50;;;;;;;;;;10279823;28;20051;-67
2022/03/02 08:09:46;;;;;;;43.25;25.30;;;;;;;;;;10274302;28;20110;-68
2022/03/02 08:14:49;;;;;;;40.92;24.42;;;;;;;;;;10290956;28;20053;-67
2022/03/02 08:19:53;;;;;;;37.70;23.60;;;;;;;;;;10303431;28;20042;-67
2022/03/02 08:25:01;;;;;;;32.15;21.83;;;;;;;;;;10273454;28;20333;-68
2022/03/02 08:30:06;;;;;;;40.22;21.17;;;;;;;;;;10275803;29;20317;-68
2022/03/02 08:35:11;;;;;;;35.83;21.75;;;;;;;;;;10293196;28;20063;-66
2022/03/02 08:40:14;;;;;;;25.45;18.88;;;;;;;;;;10284804;28;20043;-67
2022/03/02 08:45:18;;;;;;;25.38;17.30;;;;;;;;;;10272375;28;20047;-66
2022/03/02 08:50:22;;;;;;;28.50;19.02;;;;;;;;;;10274268;29;20051;-67
2022/03/02 08:55:29;;;;;;;24.08;17.02;;;;;;;;;;10281293;28;20055;-67
2022/03/02 09:00:32;;;;;;;27.08;16.83;;;;;;;;;;10288921;28;20047;-67
2022/03/02 09:05:36;;;;;;;26.08;16.20;;;;;;;;;;10312596;28;20097;-67
2022/03/02 09:10:39;;;;;;;25.95;14.70;;;;;;;;;;10313374;28;20042;-65
2022/03/02 09:15:43;;;;;;;25.55;17.40;;;;;;;;;;10272933;28;20110;-67
2022/03/02 09:20:51;;;;;;;27.95;17.33;;;;;;;;;;10273281;28;20070;-68
2022/03/02 09:25:56;;;;;;;21.95;15.80;;;;;;;;;;10295646;28;20053;-69
2022/03/02 09:31:02;;;;;;;26.05;15.65;;;;;;;;;;10307538;28;20047;-67
2022/03/02 09:36:08;;;;;;;27.23;16.75;;;;;;;;;;10273059;28;20107;-67
2022/03/02 09:41:18;;;;;;;32.72;18.77;;;;;;;;;;10275637;28;20043;-68
2022/03/02 09:46:31;;;;;;;27.83;19.48;;;;;;;;;;10258133;28;20329;-66
2022/03/02 09:51:36;;;;;;;31.50;20.23;;;;;;;;;;10283977;28;20364;-66
2022/03/02 09:56:39;;;;;;;35.42;20.10;;;;;;;;;;10272446;28;20046;-68
2022/03/02 10:01:42;;;;;;;32.30;19.50;;;;;;;;;;10271802;28;20234;-68
2022/03/02 10:06:48;;;;;;;35.15;19.38;;;;;;;;;;10272029;28;20094;-66
2022/03/02 10:11:51;;;;;;;32.80;20.63;;;;;;;;;;10289478;28;20046;-66
2022/03/02 10:17:00;;;;;;;37.20;19.23;;;;;;;;;;10311916;28;20058;-67
2022/03/02 10:22:22;;;;;;;33.38;20.63;;;;;;;;;;10324531;28;20043;-67
2022/03/02 10:27:35;;;;;;;26.45;14.65;;;;;;;;;;10309483;28;20046;-65
2022/03/02 10:32:42;;;;;;;24.63;14.60;;;;;;;;;;10305546;28;20043;-68
2022/03/02 10:37:54;;;;;;;22.73;13.48;;;;;;;;;;10291545;28;20046;-67
2022/03/02 10:43:00;;;;;;;22.45;12.70;;;;;;;;;;10309642;28;20110;-69
2022/03/02 10:48:12;;;;;;;17.50;11.68;;;;;;;;;;10314299;28;20042;-68
2022/03/02 10:53:19;;;;;;;29.48;13.35;;;;;;;;;;10305222;28;20051;-67
2022/03/02 10:58:21;;;;;;;23.27;14.65;;;;;;;;;;10304079;28;20058;-69
2022/03/02 11:03:27;;;;;;;23.40;13.20;;;;;;;;;;10266027;28;20047;-67
2022/03/02 11:08:31;;;;;;;24.83;12.88;;;;;;;;;;10290912;28;20043;-66
2022/03/02 11:13:34;;;;;;;22.67;13.00;;;;;;;;;;10276742;28;20051;-67
2022/03/02 11:18:38;;;;;;;18.60;11.43;;;;;;;;;;10306598;28;20135;-68
2022/03/02 11:23:45;;;;;;;14.25;9.32;;;;;;;;;;10300231;28;20098;-67
2022/03/02 11:28:49;;;;;;;20.33;12.25;;;;;;;;;;10279260;28;20062;-67
2022/03/02 11:33:53;;;;;;;31.33;16.47;;;;;;;;;;10279387;28;20341;-67
2022/03/02 11:38:59;;;;;;;24.77;14.82;;;;;;;;;;10279413;28;20239;-66
2022/03/02 11:44:02;;;;;;;28.40;15.80;;;;;;;;;;10304188;28;20342;-67
2022/03/02 11:49:05;;;;;;;27.70;15.25;;;;;;;;;;10276695;28;20039;-67
2022/03/02 11:54:10;;;;;;;24.33;14.43;;;;;;;;;;10283323;28;20334;-69
2022/03/02 11:59:12;;;;;;;29.00;16.63;;;;;;;;;;10275539;28;20046;-67
2022/03/02 12:04:16;;;;;;;23.75;14.52;;;;;;;;;;10282969;28;20051;-66
2022/03/02 12:09:27;;;;;;;21.35;13.27;;;;;;;;;;10275615;28;20377;-68
2022/03/02 12:14:40;;;;;;;28.95;13.98;;;;;;;;;;10292041;28;20053;-67
2022/03/02 12:19:48;;;;;;;22.20;13.90;;;;;;;;;;10304636;28;20365;-67
2022/03/02 12:24:52;;;;;;;21.20;12.18;;;;;;;;;;10286998;28;20066;-66
2022/03/02 12:29:59;;;;;;;27.40;12.73;;;;;;;;;;10274606;28;20350;-69
2022/03/02 12:35:04;;;;;;;18.58;12.73;;;;;;;;;;10264409;28;20055;-66
2022/03/02 12:40:11;;;;;;;21.55;12.93;;;;;;;;;;10282509;28;20055;-70
2022/03/02 12:45:15;;;;;;;28.52;16.13;;;;;;;;;;10327095;28;20047;-67
2022/03/02 12:50:19;;;;;;;23.17;14.00;;;;;;;;;;10293940;28;20049;-67
2022/03/02 12:55:23;;;;;;;26.08;13.23;;;;;;;;;;10292817;28;20064;-67
2022/03/02 13:00:26;;;;;;;26.85;14.88;;;;;;;;;;10277401;28;20039;-68
2022/03/02 13:05:33;;;;;;;24.92;14.35;;;;;;;;;;10303171;28;20135;-69
2022/03/02 13:10:43;;;;;;;26.90;16.02;;;;;;;;;;10286130;28;20043;-67
2022/03/02 13:15:47;;;;;;;28.15;15.77;;;;;;;;;;10297338;28;20320;-68
2022/03/02 13:21:12;;;;;;;33.95;17.20;;;;;;;;;;10276930;28;20051;-67
2022/03/02 13:26:16;;;;;;;28.50;18.05;;;;;;;;;;10252442;29;20368;-67
2022/03/02 13:31:19;;;;;;;38.35;20.85;;;;;;;;;;10274385;28;20047;-68
2022/03/02 13:36:33;;;;;;;46.75;22.00;;;;;;;;;;10273713;28;20054;-68
2022/03/02 13:41:51;;;;;;;31.67;18.35;;;;;;;;;;10280341;28;20059;-67
2022/03/02 13:47:19;;;;;;;31.67;17.90;;;;;;;;;;10295258;28;20051;-68
2022/03/02 13:52:42;;;;;;;40.67;25.23;;;;;;;;;;10285252;28;20066;-67
2022/03/02 13:57:46;;;;;;;43.13;21.17;;;;;;;;;;10303741;28;20047;-67
2022/03/02 14:02:54;;;;;;;38.33;19.30;;;;;;;;;;10309890;28;20113;-67
2022/03/02 14:08:05;;;;;;;39.42;21.00;;;;;;;;;;10275444;28;20270;-67
2022/03/02 14:13:10;;;;;;;35.35;21.00;;;;;;;;;;10282050;28;20060;-66
2022/03/02 14:18:15;;;;;;;;;;;;;;;;;;10232592;29;20055;-67
2022/03/02 14:23:19;;;;;;;45.87;21.90;;;;;;;;;;10272340;28;19966;-65
2022/03/02 14:28:25;;;;;;;40.65;20.73;;;;;;;;;;10251152;28;20346;-70
2022/03/02 14:33:28;;;;;;;40.58;19.83;;;;;;;;;;10268154;28;20106;-67
2022/03/02 14:38:31;;;;;;;44.20;22.92;;;;;;;;;;10280543;28;20047;-67
2022/03/02 14:43:34;;;;;;;47.88;22.35;;;;;;;;;;10268940;28;20286;-67
2022/03/02 14:48:37;;;;;;;112.50;46.92;;;;;;;;;;10249628;28;20043;-66
2022/03/02 14:53:39;;;;;;;42.20;23.95;;;;;;;;;;10279856;28;20043;-67
2022/03/02 14:58:44;;;;;;;41.33;22.45;;;;;;;;;;10296170;28;20222;-66
2022/03/02 15:03:50;;;;;;;41.00;23.20;;;;;;;;;;10277727;28;20063;-66
2022/03/02 15:08:55;;;;;;;43.05;22.30;;;;;;;;;;10283443;28;20058;-66
2022/03/02 15:19:26;;;;;;;46.67;24.67;;;;;;;;;;10282253;28;20345;-67
2022/03/02 15:24:29;;;;;;;87.88;48.63;;;;;;;;;;10289138;28;20043;-67
2022/03/02 15:29:33;;;;;;;96.05;43.65;;;;;;;;;;10286020;28;20357;-67
2022/03/02 15:34:47;;;;;;;71.25;33.13;;;;;;;;;;10276592;28;20082;-67
2022/03/02 15:39:53;;;;;;;80.40;35.17;;;;;;;;;;10290268;28;20039;-67
2022/03/02 15:45:01;;;;;;;;;;;;;;;;;;10287175;28;20090;-69
2022/03/02 15:50:05;;;;;;;79.13;37.03;;;;;;;;;;10283877;28;19957;-67
2022/03/02 15:55:09;;;;;;;70.40;31.67;;;;;;;;;;10315206;28;20047;-65
2022/03/02 16:00:14;;;;;;;70.70;31.13;;;;;;;;;;10276882;28;20066;-67
2022/03/02 16:05:17;;;;;;;67.18;31.00;;;;;;;;;;10283225;28;20039;-67
2022/03/02 16:10:19;;;;;;;285.40;126.50;;;;;;;;;;10282696;28;20245;-66
2022/03/02 16:15:40;;;;;;;285.60;127.07;;;;;;;;;;10305961;28;20043;-66
2022/03/02 16:20:44;;;;;;;206.20;81.78;;;;;;;;;;10282637;28;20233;-67
2022/03/02 16:25:49;;;;;;;117.10;47.20;;;;;;;;;;10313424;28;20062;-67
2022/03/02 16:30:55;;;;;;;81.07;35.25;;;;;;;;;;10318769;28;20051;-67
2022/03/02 16:35:58;;;;;;;63.10;32.08;;;;;;;;;;10286702;28;20059;-66
2022/03/02 16:41:00;;;;;;;68.90;33.50;;;;;;;;;;10305922;28;20195;-67
2022/03/02 16:46:04;;;;;;;68.78;32.90;;;;;;;;;;10273120;28;20042;-66
2022/03/02 16:51:09;;;;;;;74.45;32.55;;;;;;;;;;10280947;28;20039;-66
2022/03/02 16:56:11;;;;;;;72.38;31.52;;;;;;;;;;10312908;28;20046;-65
2022/03/02 17:01:14;;;;;;;68.03;32.40;;;;;;;;;;10276823;28;20075;-68
2022/03/02 17:11:36;;;;;;;88.10;38.05;;;;;;;;;;10326163;28;20050;-68
2022/03/02 17:16:40;;;;;;;85.25;38.33;;;;;;;;;;10274676;28;20039;-67
2022/03/02 17:21:43;;;;;;;89.32;38.75;;;;;;;;;;10271680;28;20070;-66
2022/03/02 17:26:45;;;;;;;81.57;34.40;;;;;;;;;;10308055;28;20342;-67
2022/03/02 17:31:49;;;;;;;78.78;34.47;;;;;;;;;;10310245;28;20097;-67
2022/03/02 17:36:52;;;;;;;72.03;34.10;;;;;;;;;;10301207;28;20070;-66
2022/03/02 17:41:55;;;;;;;89.53;38.20;;;;;;;;;;10275724;28;20379;-67
2022/03/02 17:46:59;;;;;;;84.03;36.65;;;;;;;;;;10300849;28;20318;-67
2022/03/02 17:52:02;;;;;;;91.75;39.10;;;;;;;;;;10269798;28;20051;-66
2022/03/02 17:57:05;;;;;;;109.88;45.05;;;;;;;;;;10285804;28;20065;-67
2022/03/02 18:02:09;;;;;;;94.57;40.78;;;;;;;;;;10311351;28;20048;-66
2022/03/02 18:07:11;;;;;;;149.75;63.33;;;;;;;;;;10275838;28;20077;-67
2022/03/02 18:12:14;;;;;;;105.65;45.90;;;;;;;;;;10279348;28;20039;-66
2022/03/02 18:17:18;;;;;;;82.35;40.20;;;;;;;;;;10300943;28;20054;-66
2022/03/02 18:22:20;;;;;;;218.95;75.60;;;;;;;;;;10270927;28;20043;-66
2022/03/02 18:27:23;;;;;;;123.80;49.85;;;;;;;;;;10309119;28;20334;-66
2022/03/02 18:32:28;;;;;;;109.82;46.17;;;;;;;;;;10310898;28;20043;-66
2022/03/02 18:37:31;;;;;;;158.20;57.55;;;;;;;;;;10292293;28;20059;-67
2022/03/02 18:42:34;;;;;;;112.63;46.10;;;;;;;;;;10293335;28;20094;-67
2022/03/02 18:47:38;;;;;;;105.15;43.17;;;;;;;;;;10288794;28;20058;-67
2022/03/02 18:52:41;;;;;;;98.30;42.88;;;;;;;;;;10299629;28;20341;-67
2022/03/02 18:57:43;;;;;;;102.93;43.17;;;;;;;;;;10294590;28;20070;-65
2022/03/02 19:02:47;;;;;;;100.05;40.95;;;;;;;;;;10308698;28;20039;-66
2022/03/02 19:07:49;;;;;;;107.22;44.28;;;;;;;;;;10317384;28;20328;-67
2022/03/02 19:12:52;;;;;;;122.18;48.63;;;;;;;;;;10294839;28;20047;-67
2022/03/02 19:17:56;;;;;;;112.65;46.05;;;;;;;;;;10286113;28;20066;-65
2022/03/02 19:23:01;;;;;;;107.13;44.13;;;;;;;;;;10315303;28;20038;-68
2022/03/02 19:28:04;;;;;;;107.07;46.55;;;;;;;;;;10303438;28;20055;-67
2022/03/02 19:33:08;;;;;;;110.95;47.92;;;;;;;;;;10275606;28;20051;-67
2022/03/02 19:43:27;;;;;;;227.23;87.53;;;;;;;;;;10284998;28;20409;-66
2022/03/02 19:48:34;;;;;;;220.98;83.93;;;;;;;;;;10303192;28;20266;-66
2022/03/02 19:53:37;;;;;;;140.18;57.90;;;;;;;;;;10297770;28;20039;-66
2022/03/02 19:58:42;;;;;;;142.77;59.55;;;;;;;;;;10288915;28;20050;-65
2022/03/02 20:03:46;;;;;;;155.60;60.50;;;;;;;;;;10311210;28;20110;-67
2022/03/02 20:08:48;;;;;;;154.50;59.50;;;;;;;;;;10275121;28;20055;-67
2022/03/02 20:13:51;;;;;;;141.52;57.00;;;;;;;;;;10299136;28;20039;-67
2022/03/02 20:18:54;;;;;;;137.85;55.30;;;;;;;;;;10274624;28;20047;-68
2022/03/02 20:23:57;;;;;;;145.95;55.65;;;;;;;;;;10274917;28;20039;-66
2022/03/02 20:28:59;;;;;;;179.95;65.97;;;;;;;;;;10284703;28;20401;-66
2022/03/02 20:34:03;;;;;;;157.25;58.67;;;;;;;;;;10274562;29;20067;-67
2022/03/02 20:39:06;;;;;;;128.43;52.10;;;;;;;;;;10293465;28;20054;-66
2022/03/02 20:44:08;;;;;;;120.00;49.05;;;;;;;;;;10273775;28;20342;-66
2022/03/02 20:49:17;;;;;;;119.13;49.90;;;;;;;;;;10258619;28;20234;-66
2022/03/02 20:54:19;;;;;;;130.50;50.95;;;;;;;;;;10287346;28;20153;-67
2022/03/02 20:59:23;;;;;;;131.60;50.30;;;;;;;;;;10275816;28;20047;-67
2022/03/02 21:04:27;;;;;;;140.65;53.30;;;;;;;;;;10303293;28;20059;-66
2022/03/02 21:09:29;;;;;;;148.70;54.15;;;;;;;;;;10302147;28;20059;-66
2022/03/02 21:14:31;;;;;;;142.68;53.58;;;;;;;;;;10305889;28;20050;-65
2022/03/02 21:19:35;;;;;;;149.52;54.78;;;;;;;;;;10249288;28;20237;-67
2022/03/02 21:24:38;;;;;;;156.52;56.97;;;;;;;;;;10304895;28;20242;-67
2022/03/02 21:29:40;;;;;;;156.65;57.97;;;;;;;;;;10309506;28;20051;-67
2022/03/02 21:34:45;;;;;;;151.20;54.47;;;;;;;;;;10312501;28;20065;-67
2022/03/02 21:39:48;;;;;;;135.05;51.40;;;;;;;;;;10293461;28;20059;-66
2022/03/02 21:44:51;;;;;;;116.40;48.97;;;;;;;;;;10312250;28;20246;-67
2022/03/02 21:49:55;;;;;;;108.07;43.08;;;;;;;;;;10280859;28;20140;-66
2022/03/02 21:54:57;;;;;;;91.50;40.38;;;;;;;;;;10292857;28;20054;-67
2022/03/02 21:59:59;;;;;;;100.10;43.40;;;;;;;;;;10275447;28;20081;-68
2022/03/02 22:05:04;;;;;;;115.32;46.03;;;;;;;;;;10298489;28;20051;-66
2022/03/02 22:10:07;;;;;;;117.68;47.17;;;;;;;;;;10271171;28;20094;-66
2022/03/02 22:15:10;;;;;;;96.93;40.55;;;;;;;;;;10271406;29;20062;-66
2022/03/02 22:20:15;;;;;;;91.97;38.33;;;;;;;;;;10303968;28;20341;-66
2022/03/02 22:25:17;;;;;;;97.53;39.40;;;;;;;;;;10294646;28;20063;-66
2022/03/02 22:30:19;;;;;;;97.85;42.10;;;;;;;;;;10272535;28;20047;-67
2022/03/02 22:35:24;;;;;;;115.05;45.33;;;;;;;;;;10310164;28;20063;-66
2022/03/02 22:40:26;;;;;;;107.35;43.53;;;;;;;;;;10310957;28;20046;-66
2022/03/02 22:45:28;;;;;;;111.55;46.97;;;;;;;;;;10310932;28;20051;-66
2022/03/02 22:50:32;;;;;;;115.20;46.78;;;;;;;;;;10310230;28;20047;-65
2022/03/02 22:55:35;;;;;;;110.38;44.63;;;;;;;;;;10300561;28;20385;-67
2022/03/02 23:01:18;;;;;;;103.35;40.35;;;;;;;;;;10284509;28;20058;-66
2022/03/02 23:22:22;;;;;;;104.03;43.72;;;;;;;;;;10296647;28;20066;-66
2022/03/02 23:27:25;;;;;;;106.93;45.25;;;;;;;;;;10294265;28;20054;-66
2022/03/02 23:32:27;;;;;;;105.03;44.83;;;;;;;;;;10268787;28;20051;-66
2022/03/02 23:37:31;;;;;;;114.40;44.78;;;;;;;;;;10282120;28;20058;-65
2022/03/02 23:42:34;;;;;;;108.32;44.50;;;;;;;;;;10310798;28;20038;-66
2022/03/02 23:47:36;;;;;;;102.80;42.60;;;;;;;;;;10302106;28;20063;-67
2022/03/02 23:52:40;;;;;;;91.40;41.10;;;;;;;;;;10288258;28;20055;-66
2022/03/02 23:57:43;;;;;;;92.45;40.60;;;;;;;;;;10314884;28;20207;-66
